Time;durP1;ratioP1;P1;durP2;ratioP2;P2;SDS_P1;SDS_P2;PMS_P1;PMS_P2;Temp;Humidity;BMP_temperature;BMP_pressure;BME280_temperature;BME280_humidity;BME280_pressure;Samples;Min_cycle;Max_cycle;Signal;HPM_P1;HPM_P2
2021/12/09 00:01:12;;;;;;;4.97;1.77;;;20.50;45.70;;;;;;4955965;28;20046;-59
2021/12/09 00:03:40;;;;;;;5.22;1.45;;;20.50;45.70;;;;;;4974300;28;20914;-59
2021/12/09 00:06:08;;;;;;;3.65;1.63;;;20.50;45.60;;;;;;4953670;28;20061;-60
2021/12/09 00:08:36;;;;;;;2.33;1.60;;;20.50;45.60;;;;;;4971487;28;20039;-60
2021/12/09 00:11:05;;;;;;;4.45;1.85;;;20.50;45.60;;;;;;4954393;28;20085;-60
2021/12/09 00:13:30;;;;;;;1.75;1.63;;;20.50;45.50;;;;;;4972549;28;20187;-60
2021/12/09 00:15:57;;;;;;;5.20;2.10;;;20.40;45.50;;;;;;4954936;28;20134;-61
2021/12/09 00:18:23;;;;;;;3.75;1.75;;;20.40;45.40;;;;;;4971778;28;20065;-60
2021/12/09 00:20:49;;;;;;;3.45;1.60;;;20.50;45.40;;;;;;4955121;28;20054;-60
2021/12/09 00:23:16;;;;;;;4.28;1.70;;;20.40;45.40;;;;;;4972477;28;20061;-60
2021/12/09 00:25:42;;;;;;;4.03;1.80;;;20.40;45.30;;;;;;4953691;28;20066;-60
2021/12/09 00:28:08;;;;;;;3.53;1.52;;;20.50;45.30;;;;;;4973963;28;20141;-60
2021/12/09 00:30:34;;;;;;;3.05;1.60;;;20.40;45.20;;;;;;4969778;28;20716;-60
2021/12/09 00:33:03;;;;;;;2.97;1.65;;;20.40;45.20;;;;;;4974055;28;20117;-60
2021/12/09 00:35:34;;;;;;;4.40;1.90;;;20.40;45.20;;;;;;4956152;28;20153;-57
2021/12/09 00:38:05;;;;;;;4.05;1.83;;;20.40;45.10;;;;;;4972551;28;20049;-59
2021/12/09 00:40:31;;;;;;;;;;;20.40;45.10;;;;;;4973471;28;20585;-57
2021/12/09 00:42:57;;;;;;;16.25;2.92;;;20.40;44.90;;;;;;4952617;28;19922;-60
2021/12/09 00:45:23;;;;;;;15.45;3.03;;;20.40;45.20;;;;;;4973412;28;20767;-59
2021/12/09 00:47:49;;;;;;;27.38;3.88;;;20.40;45.20;;;;;;4952528;28;20042;-58
2021/12/09 00:50:15;;;;;;;22.15;4.20;;;20.40;45.00;;;;;;4972269;28;20038;-60
2021/12/09 00:52:41;;;;;;;23.58;3.28;;;20.40;45.00;;;;;;4955191;28;20130;-59
2021/12/09 00:55:08;;;;;;;14.52;2.55;;;20.40;45.00;;;;;;4973564;28;20078;-59
2021/12/09 00:57:36;;;;;;;12.57;2.72;;;20.40;45.00;;;;;;4953318;28;20711;-59
2021/12/09 01:00:07;;;;;;;15.90;2.72;;;20.40;44.90;;;;;;4975090;28;20050;-60
2021/12/09 01:02:33;;;;;;;10.80;2.20;;;20.40;44.80;;;;;;4966711;28;20047;-59
2021/12/09 01:04:58;;;;;;;8.90;2.22;;;20.40;44.90;;;;;;4972064;28;20050;-60
2021/12/09 01:07:24;;;;;;;11.50;2.22;;;20.40;44.80;;;;;;4949191;28;20054;-60
2021/12/09 01:09:49;;;;;;;10.43;2.30;;;20.30;44.80;;;;;;4972879;28;20049;-58
2021/12/09 01:12:15;;;;;;;11.05;2.38;;;20.30;44.70;;;;;;4950902;28;20413;-59
2021/12/09 01:14:41;;;;;;;7.70;2.22;;;20.30;44.70;;;;;;4973267;28;20042;-59
2021/12/09 01:17:09;;;;;;;4.47;2.00;;;20.40;44.70;;;;;;4970749;28;20041;-58
2021/12/09 01:19:36;;;;;;;8.35;2.03;;;20.30;44.70;;;;;;4951740;28;20051;-57
2021/12/09 01:22:02;;;;;;;11.38;2.35;;;20.30;44.70;;;;;;4971326;28;20449;-60
2021/12/09 01:24:27;;;;;;;5.28;1.85;;;20.30;44.60;;;;;;4955357;28;20145;-59
2021/12/09 01:26:53;;;;;;;10.70;2.40;;;20.30;44.60;;;;;;4972854;28;20355;-59
2021/12/09 01:29:28;;;;;;;7.43;2.10;;;20.30;44.60;;;;;;4951062;28;20453;-58
2021/12/09 01:32:00;;;;;;;7.35;2.30;;;20.30;44.60;;;;;;4971875;28;20043;-59
2021/12/09 01:34:26;;;;;;;6.55;2.10;;;20.30;44.60;;;;;;4954297;28;20181;-58
2021/12/09 01:36:51;;;;;;;8.40;1.80;;;20.30;44.70;;;;;;4973962;28;20145;-59
2021/12/09 01:39:18;;;;;;;4.80;1.60;;;20.30;44.80;;;;;;4950047;28;20449;-57
2021/12/09 01:41:44;;;;;;;4.40;1.80;;;20.30;44.80;;;;;;4978481;28;20042;-59
2021/12/09 01:44:11;;;;;;;6.55;1.88;;;20.30;44.90;;;;;;4950917;28;20061;-58
2021/12/09 01:46:36;;;;;;;5.18;1.90;;;20.30;44.90;;;;;;4972650;28;20073;-58
2021/12/09 01:49:02;;;;;;;9.27;2.08;;;20.30;45.00;;;;;;4949353;28;20667;-59
2021/12/09 01:51:28;;;;;;;5.00;2.17;;;20.30;45.00;;;;;;4975194;28;20112;-57
2021/12/09 01:53:53;;;;;;;6.78;1.98;;;20.20;45.00;;;;;;4968583;28;20469;-59
2021/12/09 01:56:23;;;;;;;5.95;2.05;;;20.20;45.00;;;;;;4951363;28;20177;-57
2021/12/09 01:58:51;;;;;;;7.57;1.80;;;20.30;45.10;;;;;;4969143;28;20487;-59
2021/12/09 02:01:17;;;;;;;2.92;1.70;;;20.20;45.00;;;;;;4951538;28;20416;-59
2021/12/09 02:03:43;;;;;;;4.03;1.80;;;20.20;45.00;;;;;;4975587;28;20157;-58
2021/12/09 02:06:09;;;;;;;3.72;1.60;;;20.20;45.10;;;;;;4956355;28;20039;-59
2021/12/09 02:08:34;;;;;;;6.97;2.35;;;20.20;45.10;;;;;;4976693;28;20505;-57
2021/12/09 02:11:00;;;;;;;5.32;1.73;;;20.20;45.00;;;;;;4955881;28;20077;-59
2021/12/09 02:13:27;;;;;;;3.67;1.58;;;20.20;45.00;;;;;;4976437;28;20055;-58
2021/12/09 02:15:54;;;;;;;4.38;1.70;;;20.20;45.00;;;;;;4951218;28;20081;-59
2021/12/09 02:18:21;;;;;;;3.80;1.67;;;20.20;45.00;;;;;;4976107;28;20054;-59
2021/12/09 02:21:02;;;;;;;3.75;1.80;;;20.20;45.00;;;;;;4954001;28;20054;-58
2021/12/09 02:23:28;;;;;;;2.25;1.60;;;20.20;45.00;;;;;;4975529;28;20408;-59
2021/12/09 02:25:53;;;;;;;3.65;1.60;;;20.20;45.00;;;;;;4956634;28;20129;-59
2021/12/09 02:28:19;;;;;;;2.58;1.45;;;20.10;44.90;;;;;;4974392;28;20789;-59
2021/12/09 02:30:45;;;;;;;3.08;1.90;;;20.20;45.00;;;;;;4954714;28;20046;-57
2021/12/09 02:33:11;;;;;;;2.50;1.60;;;20.10;44.90;;;;;;4976960;28;20070;-59
2021/12/09 02:35:38;;;;;;;5.40;1.75;;;20.10;44.90;;;;;;4976127;28;20057;-59
2021/12/09 02:38:05;;;;;;;3.17;1.45;;;20.20;44.90;;;;;;4953164;28;20501;-59
2021/12/09 02:40:33;;;;;;;6.00;1.73;;;20.10;44.90;;;;;;4978176;28;20061;-59
2021/12/09 02:42:59;;;;;;;3.55;1.58;;;20.10;44.90;;;;;;4956205;28;20536;-59
2021/12/09 02:45:25;;;;;;;4.15;1.95;;;20.10;45.60;;;;;;4974480;28;20065;-59
2021/12/09 02:47:51;;;;;;;2.75;1.50;;;20.10;44.90;;;;;;4955519;28;20046;-59
2021/12/09 02:50:16;;;;;;;4.78;2.08;;;20.10;44.80;;;;;;4976173;28;20129;-59
2021/12/09 02:52:42;;;;;;;3.75;1.50;;;20.10;44.80;;;;;;4957512;28;20047;-59
2021/12/09 02:55:08;;;;;;;4.20;1.70;;;20.10;44.80;;;;;;4975593;28;20058;-59
2021/12/09 02:57:34;;;;;;;4.25;1.67;;;20.10;44.80;;;;;;4952560;28;20130;-59
2021/12/09 03:00:00;;;;;;;3.47;1.73;;;20.10;44.70;;;;;;4976339;28;20053;-57
2021/12/09 03:02:25;;;;;;;2.25;1.58;;;20.00;44.70;;;;;;4949869;28;21446;-57
2021/12/09 03:04:54;;;;;;;3.08;1.48;;;20.00;44.70;;;;;;4972638;28;20050;-58
2021/12/09 03:07:26;;;;;;;4.38;1.90;;;20.00;44.60;;;;;;4957449;28;20519;-61
2021/12/09 03:09:56;;;;;;;3.47;1.60;;;20.00;44.60;;;;;;4973313;28;20078;-58
2021/12/09 03:12:25;;;;;;;2.55;1.40;;;20.00;44.60;;;;;;4975096;28;20046;-58
2021/12/09 03:14:51;;;;;;;4.50;1.60;;;20.00;44.50;;;;;;4959462;28;20654;-58
2021/12/09 03:17:18;;;;;;;4.47;1.52;;;20.00;44.60;;;;;;4975715;28;20777;-59
2021/12/09 03:19:44;;;;;;;3.95;1.48;;;20.00;44.60;;;;;;4952293;28;20066;-58
2021/12/09 03:22:10;;;;;;;6.10;1.65;;;19.90;44.50;;;;;;4973521;28;20117;-59
2021/12/09 03:24:35;;;;;;;4.15;1.85;;;20.00;44.60;;;;;;4952949;28;20065;-60
2021/12/09 03:27:01;;;;;;;2.58;1.70;;;19.90;44.50;;;;;;4973069;28;20062;-59
2021/12/09 03:29:29;;;;;;;2.25;1.25;;;20.00;44.50;;;;;;4954892;28;20050;-59
2021/12/09 03:31:57;;;;;;;3.28;1.60;;;20.00;44.50;;;;;;4974310;28;20034;-60
2021/12/09 03:34:25;;;;;;;2.20;1.42;;;20.00;44.40;;;;;;4957468;28;20332;-59
2021/12/09 03:36:51;;;;;;;3.97;1.50;;;20.00;44.40;;;;;;4974469;28;20056;-59
2021/12/09 03:39:21;;;;;;;4.47;1.83;;;19.90;44.30;;;;;;4952857;28;20501;-59
2021/12/09 03:41:50;;;;;;;2.80;1.48;;;19.90;44.40;;;;;;4978580;28;20627;-59
2021/12/09 03:44:16;;;;;;;4.75;1.60;;;19.90;44.30;;;;;;4948722;28;21634;-60
2021/12/09 03:46:43;;;;;;;2.58;1.40;;;19.90;44.30;;;;;;4974313;28;20065;-59
2021/12/09 03:49:14;;;;;;;2.08;1.42;;;19.90;44.30;;;;;;4968515;28;20046;-58
2021/12/09 03:51:40;;;;;;;2.20;1.55;;;19.90;44.30;;;;;;4973560;28;20137;-59
2021/12/09 03:54:08;;;;;;;2.00;1.50;;;19.90;44.30;;;;;;4973011;28;21042;-60
2021/12/09 03:56:35;;;;;;;4.55;1.42;;;19.90;44.30;;;;;;4942367;28;20046;-60
2021/12/09 03:59:02;;;;;;;2.67;1.20;;;19.90;44.20;;;;;;4974243;28;20050;-59
2021/12/09 04:01:28;;;;;;;1.83;1.58;;;19.90;44.20;;;;;;4952754;28;20534;-59
2021/12/09 04:03:55;;;;;;;5.63;2.00;;;19.90;44.10;;;;;;4975106;28;20046;-58
2021/12/09 04:06:20;;;;;;;2.72;1.55;;;19.80;43.90;;;;;;4950539;28;20061;-59
2021/12/09 04:08:48;;;;;;;2.45;1.50;;;19.80;44.00;;;;;;4976621;28;20065;-59
2021/12/09 04:11:15;;;;;;;3.28;1.63;;;19.80;43.80;;;;;;4953231;28;20477;-59
2021/12/09 04:13:41;;;;;;;3.17;1.80;;;19.80;43.80;;;;;;4973511;28;20058;-59
2021/12/09 04:16:07;;;;;;;4.80;2.08;;;19.80;43.80;;;;;;4953773;28;20046;-59
2021/12/09 04:18:37;;;;;;;5.00;1.75;;;19.80;43.90;;;;;;4974094;28;20069;-59
2021/12/09 04:21:03;;;;;;;3.55;1.70;;;19.80;43.70;;;;;;4952251;28;20046;-58
2021/12/09 04:23:29;;;;;;;1.85;1.50;;;19.80;43.80;;;;;;4973971;28;20049;-59
2021/12/09 04:25:56;;;;;;;3.70;1.70;;;19.80;43.80;;;;;;4954023;28;20070;-56
2021/12/09 04:28:22;;;;;;;2.45;1.45;;;19.80;43.70;;;;;;4972872;28;20490;-59
2021/12/09 04:30:48;;;;;;;3.30;1.80;;;19.80;43.60;;;;;;4974684;28;20046;-59
2021/12/09 04:33:14;;;;;;;2.67;1.60;;;19.80;43.60;;;;;;4954908;28;20043;-59
2021/12/09 04:35:40;;;;;;;4.10;1.58;;;19.80;43.50;;;;;;4972529;28;20061;-60
2021/12/09 04:38:06;;;;;;;3.65;1.77;;;19.80;43.60;;;;;;4952510;28;20051;-58
2021/12/09 04:40:31;;;;;;;2.42;1.63;;;19.70;43.50;;;;;;4973304;28;20057;-58
2021/12/09 04:42:57;;;;;;;5.85;1.80;;;19.80;43.50;;;;;;4954417;28;20181;-59
2021/12/09 04:45:22;;;;;;;2.38;1.80;;;19.80;43.50;;;;;;4975257;28;20042;-58
2021/12/09 04:47:48;;;;;;;2.10;1.88;;;19.70;44.20;;;;;;4954363;28;20340;-59
2021/12/09 04:50:14;;;;;;;2.45;1.75;;;19.70;43.40;;;;;;4972478;28;20053;-59
2021/12/09 04:52:40;;;;;;;3.47;2.00;;;19.70;43.40;;;;;;4954143;28;20038;-60
2021/12/09 04:55:08;;;;;;;4.03;1.60;;;19.70;43.40;;;;;;4974833;28;20078;-58
2021/12/09 04:57:35;;;;;;;2.70;1.70;;;19.70;43.40;;;;;;4950920;28;20374;-59
2021/12/09 05:00:05;;;;;;;2.53;1.38;;;19.70;43.40;;;;;;4972354;28;20124;-59
2021/12/09 05:02:47;;;;;;;2.80;1.58;;;19.70;43.30;;;;;;4953352;28;20051;-57
2021/12/09 05:05:13;;;;;;;2.40;1.67;;;19.70;43.20;;;;;;4975505;28;20137;-58
2021/12/09 05:07:38;;;;;;;1.67;1.48;;;19.70;43.20;;;;;;4975573;28;20133;-57
2021/12/09 05:10:05;;;;;;;3.58;1.75;;;19.70;43.30;;;;;;4953919;28;20101;-59
2021/12/09 05:12:30;;;;;;;3.60;1.83;;;19.70;43.20;;;;;;4974408;28;20679;-59
2021/12/09 05:14:56;;;;;;;2.83;1.50;;;19.70;43.20;;;;;;4951625;28;20050;-59
2021/12/09 05:17:22;;;;;;;2.35;1.55;;;19.70;43.20;;;;;;4968500;28;20772;-59
2021/12/09 05:19:48;;;;;;;1.77;1.50;;;19.60;43.20;;;;;;4953144;28;21216;-59
2021/12/09 05:22:15;;;;;;;1.95;1.40;;;19.60;43.10;;;;;;4974876;28;20092;-59
2021/12/09 05:24:41;;;;;;;2.13;1.58;;;19.60;43.10;;;;;;4953497;28;20062;-59
2021/12/09 05:27:10;;;;;;;1.55;1.30;;;19.60;43.20;;;;;;4973059;28;20055;-60
2021/12/09 05:29:40;;;;;;;2.92;1.80;;;19.60;43.20;;;;;;4956368;28;20042;-59
2021/12/09 05:32:08;;;;;;;2.05;1.52;;;19.60;43.40;;;;;;4967785;28;20432;-60
2021/12/09 05:34:37;;;;;;;2.55;1.60;;;19.60;43.50;;;;;;4954208;28;20042;-58
2021/12/09 05:37:07;;;;;;;2.70;1.63;;;19.60;43.90;;;;;;4975838;28;20046;-59
2021/12/09 05:39:34;;;;;;;3.05;1.67;;;19.70;44.10;;;;;;4952419;28;21578;-60
2021/12/09 05:41:59;;;;;;;2.80;1.85;;;19.70;44.10;;;;;;4972696;28;20058;-57
2021/12/09 05:44:26;;;;;;;2.28;1.70;;;19.60;44.00;;;;;;4961861;28;20042;-56
2021/12/09 05:46:52;;;;;;;2.90;1.75;;;19.70;44.20;;;;;;4965514;28;20457;-59
2021/12/09 05:49:19;;;;;;;3.47;1.45;;;19.70;44.10;;;;;;4971581;28;20046;-59
2021/12/09 05:51:45;;;;;;;2.67;1.70;;;19.70;44.20;;;;;;4954978;28;20042;-60
2021/12/09 05:54:11;;;;;;;2.47;1.48;;;19.70;44.20;;;;;;4971435;28;20609;-60
2021/12/09 05:56:37;;;;;;;2.85;1.90;;;19.70;44.10;;;;;;4954630;28;20572;-60
2021/12/09 05:59:04;;;;;;;4.28;1.77;;;19.70;44.30;;;;;;4968631;28;20054;-60
2021/12/09 06:01:29;;;;;;;2.20;1.50;;;19.70;44.30;;;;;;4951693;28;20038;-57
2021/12/09 06:03:55;;;;;;;2.08;1.65;;;19.70;44.30;;;;;;4973881;28;20189;-59
2021/12/09 06:06:21;;;;;;;6.10;1.60;;;19.70;44.30;;;;;;4953962;28;20053;-57
2021/12/09 06:08:47;;;;;;;2.50;1.73;;;19.70;44.10;;;;;;4973545;28;20042;-60
2021/12/09 06:11:13;;;;;;;2.30;1.30;;;19.70;44.10;;;;;;4954540;28;20439;-58
2021/12/09 06:13:40;;;;;;;1.95;1.42;;;19.70;44.20;;;;;;4970877;28;20605;-58
2021/12/09 06:16:07;;;;;;;2.40;1.25;;;19.70;44.20;;;;;;4952039;28;20043;-58
2021/12/09 06:18:32;;;;;;;3.67;1.50;;;19.70;44.20;;;;;;4970617;28;20067;-60
2021/12/09 06:20:58;;;;;;;2.70;1.50;;;19.70;44.20;;;;;;4972228;28;20076;-59
2021/12/09 06:23:24;;;;;;;2.58;1.40;;;19.80;44.20;;;;;;4952415;28;20054;-61
2021/12/09 06:25:50;;;;;;;3.13;1.65;;;19.70;44.20;;;;;;4973098;28;20532;-60
2021/12/09 06:28:16;;;;;;;3.03;1.30;;;19.80;44.20;;;;;;4949343;28;20074;-60
2021/12/09 06:30:43;;;;;;;3.80;1.40;;;19.80;44.20;;;;;;4972333;28;20050;-60
2021/12/09 06:33:09;;;;;;;2.83;1.58;;;19.80;44.20;;;;;;4951655;28;20046;-60
2021/12/09 06:35:35;;;;;;;2.65;1.63;;;19.80;44.30;;;;;;4973596;28;20045;-59
2021/12/09 06:38:01;;;;;;;1.75;1.30;;;19.80;44.30;;;;;;4955080;28;20049;-59
2021/12/09 06:40:26;;;;;;;3.97;1.88;;;19.80;44.30;;;;;;4973124;28;20050;-60
2021/12/09 06:42:53;;;;;;;5.13;1.77;;;19.90;44.40;;;;;;4951545;28;20077;-60
2021/12/09 06:45:21;;;;;;;1.83;1.50;;;19.80;44.20;;;;;;4971173;28;20054;-60
2021/12/09 06:47:47;;;;;;;2.08;1.40;;;19.90;44.30;;;;;;4957820;28;20058;-60
2021/12/09 06:50:15;;;;;;;3.55;1.90;;;19.90;44.20;;;;;;4976733;28;20069;-60
2021/12/09 06:52:44;;;;;;;3.63;1.63;;;19.90;44.10;;;;;;4967627;28;20116;-59
2021/12/09 06:55:12;;;;;;;2.47;1.50;;;19.90;44.10;;;;;;4970746;28;20128;-61
2021/12/09 06:57:38;;;;;;;2.58;1.73;;;19.90;44.10;;;;;;4973433;28;20057;-60
2021/12/09 07:00:11;;;;;;;2.53;1.75;;;19.90;44.10;;;;;;4955005;28;20046;-59
2021/12/09 07:02:37;;;;;;;2.70;1.60;;;20.00;44.10;;;;;;4975214;28;20042;-60
2021/12/09 07:05:04;;;;;;;3.40;1.60;;;20.00;44.10;;;;;;4940426;28;20047;-60
2021/12/09 07:07:30;;;;;;;3.30;1.60;;;20.00;44.10;;;;;;4975868;28;20144;-60
2021/12/09 07:09:55;;;;;;;2.88;1.50;;;20.00;44.20;;;;;;4948565;28;20038;-59
2021/12/09 07:12:21;;;;;;;3.67;1.45;;;20.00;44.30;;;;;;4974192;28;20108;-60
2021/12/09 07:14:47;;;;;;;2.53;1.73;;;20.00;44.20;;;;;;4954423;28;20522;-60
2021/12/09 07:17:13;;;;;;;2.95;1.80;;;20.00;44.20;;;;;;4975180;28;20061;-59
2021/12/09 07:19:39;;;;;;;3.40;1.65;;;20.10;44.20;;;;;;4956647;28;20050;-60
2021/12/09 07:22:05;;;;;;;4.13;1.50;;;20.00;44.10;;;;;;4974728;28;20035;-60
2021/12/09 07:24:31;;;;;;;1.95;1.50;;;20.10;44.00;;;;;;4953433;28;20134;-60
2021/12/09 07:26:57;;;;;;;2.35;1.67;;;20.10;44.00;;;;;;4975529;28;20042;-60
2021/12/09 07:29:24;;;;;;;2.28;1.58;;;20.10;43.90;;;;;;4960766;28;20054;-58
2021/12/09 07:31:50;;;;;;;3.85;2.08;;;20.10;43.90;;;;;;4977220;28;20042;-58
2021/12/09 07:34:16;;;;;;;2.90;1.80;;;20.10;43.80;;;;;;4973223;28;20078;-59
2021/12/09 07:36:43;;;;;;;3.35;1.60;;;20.20;43.80;;;;;;4954751;28;20216;-59
2021/12/09 07:39:09;;;;;;;2.90;1.90;;;20.20;43.70;;;;;;4973473;28;20459;-59
2021/12/09 07:41:34;;;;;;;2.83;1.60;;;20.20;43.60;;;;;;4955689;28;20137;-58
2021/12/09 07:44:02;;;;;;;3.47;1.73;;;20.20;43.60;;;;;;4974014;28;20074;-59
2021/12/09 07:46:29;;;;;;;3.92;1.80;;;20.20;43.60;;;;;;4955039;28;21014;-59
2021/12/09 07:48:54;;;;;;;3.22;1.80;;;20.20;43.60;;;;;;4973610;28;20051;-59
2021/12/09 07:51:20;;;;;;;3.45;1.70;;;20.30;43.60;;;;;;4950478;28;20454;-59
2021/12/09 07:53:45;;;;;;;3.25;1.70;;;20.30;43.70;;;;;;4976525;28;20496;-60
2021/12/09 07:56:11;;;;;;;3.80;2.03;;;20.20;43.50;;;;;;4952444;28;20046;-60
2021/12/09 07:58:37;;;;;;;3.83;1.77;;;20.30;43.50;;;;;;4971309;28;20132;-59
2021/12/09 08:01:04;;;;;;;2.78;1.60;;;20.30;43.50;;;;;;4957246;28;20581;-60
2021/12/09 08:03:30;;;;;;;4.05;1.80;;;20.30;43.60;;;;;;4967863;28;20082;-59
2021/12/09 08:05:56;;;;;;;4.38;2.00;;;20.30;43.50;;;;;;4973243;28;20134;-58
2021/12/09 08:08:21;;;;;;;3.80;1.73;;;20.40;43.70;;;;;;4956278;28;20038;-59
2021/12/09 08:10:47;;;;;;;4.13;1.60;;;20.30;43.60;;;;;;4975566;28;20042;-58
2021/12/09 08:13:13;;;;;;;5.90;2.05;;;20.30;43.50;;;;;;4953131;28;20153;-58
2021/12/09 08:15:45;;;;;;;3.00;1.67;;;20.30;43.60;;;;;;4972544;28;20053;-58
2021/12/09 08:18:27;;;;;;;4.43;1.88;;;20.30;43.50;;;;;;4957805;28;20137;-57
2021/12/09 08:20:55;;;;;;;3.75;1.98;;;20.30;43.50;;;;;;4973268;28;20061;-58
2021/12/09 08:23:21;;;;;;;3.45;1.80;;;20.30;43.50;;;;;;4951182;28;20042;-58
2021/12/09 08:25:48;;;;;;;6.90;1.77;;;20.40;43.60;;;;;;4973248;28;20038;-58
2021/12/09 08:28:14;;;;;;;3.28;1.85;;;20.40;43.60;;;;;;4949237;28;20116;-58
2021/12/09 08:30:40;;;;;;;3.80;1.63;;;20.30;43.40;;;;;;4972243;28;20058;-58
2021/12/09 08:33:07;;;;;;;2.35;1.63;;;20.30;43.40;;;;;;4954689;28;20412;-58
2021/12/09 08:35:35;;;;;;;3.33;1.90;;;20.30;43.40;;;;;;4975097;28;20594;-58
2021/12/09 08:38:04;;;;;;;3.45;1.80;;;20.40;43.40;;;;;;4949761;28;20134;-57
2021/12/09 08:40:31;;;;;;;3.05;1.77;;;20.40;43.50;;;;;;4971174;28;20145;-57
2021/12/09 08:42:56;;;;;;;4.53;1.95;;;20.40;43.50;;;;;;4954983;28;21416;-56
2021/12/09 08:45:22;;;;;;;3.05;1.50;;;20.40;43.50;;;;;;4972048;28;20113;-58
2021/12/09 08:47:49;;;;;;;2.45;1.73;;;20.40;43.50;;;;;;4973292;28;20050;-56
2021/12/09 08:50:19;;;;;;;3.13;1.45;;;20.40;43.60;;;;;;4949606;28;20197;-58
2021/12/09 08:52:51;;;;;;;3.33;1.80;;;20.40;43.60;;;;;;4972487;28;20038;-58
2021/12/09 08:55:18;;;;;;;2.30;1.70;;;20.40;43.60;;;;;;4947951;28;20312;-58
2021/12/09 08:57:46;;;;;;;3.35;1.80;;;20.40;44.30;;;;;;4975674;28;20742;-59
2021/12/09 09:00:16;;;;;;;4.43;2.00;;;20.40;43.60;;;;;;4955575;28;20082;-60
2021/12/09 09:02:43;;;;;;;4.50;1.95;;;20.40;43.60;;;;;;4972259;28;20104;-60
2021/12/09 09:05:13;;;;;;;2.20;1.65;;;20.40;43.50;;;;;;4946441;28;20042;-60
2021/12/09 09:07:43;;;;;;;4.13;1.77;;;20.40;43.40;;;;;;4973415;28;20043;-58
2021/12/09 09:10:10;;;;;;;2.97;1.60;;;20.50;43.50;;;;;;4955166;28;20130;-58
2021/12/09 09:12:37;;;;;;;2.33;1.52;;;20.40;43.40;;;;;;4974958;28;20056;-59
2021/12/09 09:15:07;;;;;;;2.60;1.45;;;20.50;43.40;;;;;;4951286;28;20065;-58
2021/12/09 09:17:32;;;;;;;3.60;1.73;;;20.50;43.40;;;;;;4972993;28;20427;-59
2021/12/09 09:19:58;;;;;;;3.50;1.60;;;20.40;43.50;;;;;;4947265;28;20043;-59
2021/12/09 09:22:23;;;;;;;1.90;1.40;;;20.50;43.50;;;;;;4976557;28;20049;-58
2021/12/09 09:24:49;;;;;;;3.22;1.60;;;20.50;43.60;;;;;;4954712;28;20864;-58
2021/12/09 09:27:14;;;;;;;3.70;1.60;;;20.50;43.60;;;;;;4976864;28;20121;-59
2021/12/09 09:29:41;;;;;;;4.18;1.60;;;20.50;43.60;;;;;;4976517;28;20188;-58
2021/12/09 09:32:10;;;;;;;4.90;1.73;;;20.50;43.60;;;;;;4955656;28;20054;-59
2021/12/09 09:34:37;;;;;;;2.42;1.70;;;20.50;43.60;;;;;;4971471;28;20050;-58
2021/12/09 09:37:04;;;;;;;3.50;1.58;;;20.50;43.60;;;;;;4953665;28;20399;-58
2021/12/09 09:39:31;;;;;;;3.05;1.58;;;20.50;43.60;;;;;;4974704;28;20143;-59
2021/12/09 09:42:18;;;;;;;3.45;1.60;;;20.50;43.60;;;;;;4953033;28;20413;-59
2021/12/09 09:44:57;;;;;;;3.88;1.70;;;20.50;43.60;;;;;;4973885;28;20046;-58
2021/12/09 09:47:25;;;;;;;4.10;1.60;;;20.50;43.60;;;;;;4951483;28;20051;-59
2021/12/09 09:49:52;;;;;;;2.33;1.58;;;20.50;43.60;;;;;;4975629;28;20046;-58
2021/12/09 09:52:18;;;;;;;2.63;1.60;;;20.50;43.70;;;;;;4954371;28;20493;-58
2021/12/09 09:54:44;;;;;;;2.47;1.50;;;20.50;43.80;;;;;;4973871;28;20054;-58
2021/12/09 09:57:10;;;;;;;2.45;1.58;;;20.50;43.80;;;;;;4954597;28;20043;-59
2021/12/09 09:59:37;;;;;;;3.17;1.50;;;20.60;44.00;;;;;;4972134;28;20058;-58
2021/12/09 10:02:06;;;;;;;2.92;1.55;;;20.50;44.00;;;;;;4948973;28;20050;-58
2021/12/09 10:05:16;;;;;;;3.05;1.35;;;20.60;44.40;;;;;;4971915;28;20050;-58
2021/12/09 10:07:21;;;;;;;4.50;1.70;;;20.60;44.50;;;;;;4945138;28;20105;-59
2021/12/09 10:09:48;;;;;;;3.67;1.50;;;20.60;44.70;;;;;;4972574;28;20039;-60
2021/12/09 10:12:15;;;;;;;2.95;1.30;;;20.70;44.70;;;;;;4955569;28;20228;-59
2021/12/09 10:14:46;;;;;;;2.55;1.27;;;20.70;44.80;;;;;;4968567;28;20065;-59
2021/12/09 10:17:13;;;;;;;;;;;20.70;44.90;;;;;;4952909;28;20035;-58
2021/12/09 10:19:55;;;;;;;1.58;1.25;;;20.70;45.00;;;;;;4970920;28;19932;-58
2021/12/09 10:22:24;;;;;;;5.50;1.70;;;20.70;44.90;;;;;;4966450;28;20054;-57
2021/12/09 10:24:53;;;;;;;3.50;1.52;;;20.70;44.90;;;;;;4989842;28;20630;-59
2021/12/09 10:27:28;;;;;;;2.95;1.58;;;20.70;44.90;;;;;;4976714;28;20078;-59
2021/12/09 10:30:13;;;;;;;4.03;1.58;;;20.70;45.00;;;;;;4954485;28;20050;-59
2021/12/09 10:32:40;;;;;;;4.43;1.52;;;20.70;44.90;;;;;;4976456;28;20129;-59
2021/12/09 10:35:15;;;;;;;2.15;1.30;;;20.70;45.00;;;;;;4956675;28;20125;-58
2021/12/09 10:37:42;;;;;;;3.08;1.80;;;20.70;45.00;;;;;;4975487;28;20129;-59
2021/12/09 10:40:19;;;;;;;3.70;1.60;;;20.70;45.00;;;;;;4958334;28;20047;-59
2021/12/09 10:42:51;;;;;;;3.67;1.40;;;20.70;44.90;;;;;;4973916;28;20474;-59
2021/12/09 10:45:23;;;;;;;1.73;1.02;;;20.70;44.90;;;;;;4950955;28;20046;-59
2021/12/09 10:48:02;;;;;;;2.40;1.20;;;20.70;44.90;;;;;;4977091;28;20086;-59
2021/12/09 10:55:53;;;;;;;3.03;1.58;;;20.70;45.00;;;;;;4957331;28;20042;-59
2021/12/09 10:58:52;;;;;;;3.40;1.60;;;20.70;44.90;;;;;;4973105;28;20077;-59
2021/12/09 11:01:20;;;;;;;3.17;1.58;;;20.70;45.10;;;;;;4950014;28;20058;-58
2021/12/09 11:03:53;;;;;;;3.20;1.48;;;20.60;45.00;;;;;;4972651;28;20051;-57
2021/12/09 11:06:37;;;;;;;2.58;1.20;;;20.60;45.00;;;;;;4952672;28;20050;-59
2021/12/09 11:09:12;;;;;;;3.45;1.42;;;20.70;45.10;;;;;;4977063;28;20097;-59
2021/12/09 11:11:42;;;;;;;3.15;1.40;;;20.60;45.00;;;;;;4953529;28;20125;-59
2021/12/09 11:14:14;;;;;;;2.53;1.42;;;20.60;45.10;;;;;;4974827;28;20704;-58
2021/12/09 11:16:59;;;;;;;2.78;1.63;;;20.60;45.10;;;;;;4953023;28;20069;-59
2021/12/09 11:19:39;;;;;;;2.90;1.20;;;20.60;45.20;;;;;;4974985;28;20062;-59
2021/12/09 11:22:08;;;;;;;2.45;1.40;;;20.60;45.20;;;;;;4955110;28;20046;-59
2021/12/09 11:24:41;;;;;;;1.65;1.30;;;20.60;45.20;;;;;;4974182;28;20119;-58
2021/12/09 11:27:08;;;;;;;2.03;1.48;;;20.60;45.10;;;;;;4953563;28;20477;-59
2021/12/09 11:29:39;;;;;;;3.38;1.75;;;20.60;45.20;;;;;;4972932;28;20042;-58
2021/12/09 11:32:17;;;;;;;6.28;1.70;;;20.60;45.20;;;;;;4953607;28;20134;-59
2021/12/09 11:35:09;;;;;;;1.92;1.30;;;20.60;45.20;;;;;;4975303;28;20540;-58
2021/12/09 11:40:50;;;;;;;2.92;1.50;;;20.60;45.40;;;;;;4967537;28;20093;-58
2021/12/09 11:43:22;;;;;;;3.67;1.67;;;20.60;45.30;;;;;;4952623;28;20038;-58
2021/12/09 11:45:50;;;;;;;3.03;1.40;;;20.60;45.30;;;;;;4960265;28;20413;-58
2021/12/09 11:48:17;;;;;;;3.47;1.65;;;20.60;45.30;;;;;;4952033;28;20104;-57
2021/12/09 11:50:47;;;;;;;4.05;1.90;;;20.60;45.30;;;;;;4974289;28;20374;-57
2021/12/09 11:53:16;;;;;;;2.92;1.52;;;20.60;45.50;;;;;;4950486;28;20052;-58
2021/12/09 11:55:48;;;;;;;3.78;1.73;;;20.60;45.50;;;;;;4974918;28;20042;-57
2021/12/09 11:58:26;;;;;;;3.22;1.55;;;20.60;45.40;;;;;;4955001;28;20121;-57
2021/12/09 12:24:16;;;;;;;5.43;1.58;;;20.60;45.80;;;;;;4953998;28;20059;-57
2021/12/09 12:30:03;;;;;;;4.15;1.65;;;20.50;45.60;;;;;;4957507;28;20733;-58
2021/12/09 12:32:47;;;;;;;6.28;1.85;;;20.60;46.40;;;;;;4975570;28;20525;-57
2021/12/09 12:38:08;;;;;;;3.17;1.73;;;20.60;45.50;;;;;;4969878;28;20050;-58
2021/12/09 12:40:43;;;;;;;2.22;1.73;;;20.50;45.40;;;;;;4956434;28;20457;-58
2021/12/09 12:43:17;;;;;;;1.60;1.33;;;20.50;45.40;;;;;;4969813;28;20042;-58
2021/12/09 12:48:36;;;;;;;4.63;1.98;;;20.50;45.30;;;;;;4974086;28;20077;-58
2021/12/09 12:52:08;;;;;;;2.10;1.70;;;20.50;45.20;;;;;;4952750;28;20062;-58
2021/12/09 12:54:20;;;;;;;3.65;2.28;;;20.50;45.30;;;;;;4968940;28;20058;-56
2021/12/09 12:56:54;;;;;;;2.88;1.60;;;20.50;45.30;;;;;;4963436;28;20512;-58
2021/12/09 12:59:29;;;;;;;4.03;2.03;;;20.50;45.40;;;;;;4973758;28;20118;-57
2021/12/09 13:02:09;;;;;;;5.35;2.10;;;20.50;45.30;;;;;;4953577;28;20038;-58
2021/12/09 13:05:21;;;;;;;2.73;1.77;;;20.50;45.30;;;;;;4970563;28;20438;-58
2021/12/09 13:13:26;;;;;;;2.95;1.92;;;20.50;45.30;;;;;;4974851;28;20050;-56
2021/12/09 13:16:06;;;;;;;3.40;1.95;;;20.50;45.30;;;;;;4955410;28;20371;-57
2021/12/09 13:21:36;;;;;;;4.63;1.88;;;20.50;45.20;;;;;;4955698;28;20205;-58
2021/12/09 13:24:26;;;;;;;3.88;2.00;;;20.50;45.20;;;;;;4974551;28;20046;-58
2021/12/09 13:27:11;;;;;;;4.80;1.98;;;20.50;45.10;;;;;;4954610;28;20055;-58
2021/12/09 13:29:57;;;;;;;3.38;1.80;;;20.50;45.10;;;;;;4972365;28;21575;-57
2021/12/09 13:35:21;;;;;;;2.88;1.77;;;20.50;45.10;;;;;;4974888;28;20050;-58
2021/12/09 13:45:53;;;;;;;3.17;2.20;;;20.40;45.10;;;;;;4974059;28;20915;-58
2021/12/09 13:47:01;;;;;;;3.08;1.88;;;20.40;45.00;;;;;;4971445;28;20085;-57
2021/12/09 13:54:07;;;;;;;2.75;1.90;;;20.40;45.00;;;;;;4964576;28;20153;-56
2021/12/09 13:54:55;;;;;;;3.42;1.70;;;20.40;45.10;;;;;;4972698;28;20085;-57
2021/12/09 13:57:36;;;;;;;2.80;1.80;;;20.40;45.00;;;;;;4970575;28;20061;-57